createdAt,value
2019-03-19T00:00:55.060Z,92.00
2019-03-19T00:03:34.869Z,92.00
2019-03-19T00:06:15.083Z,91.90
2019-03-19T00:08:55.238Z,92.00
2019-03-19T00:11:22.929Z,92.00
2019-03-19T00:14:10.023Z,92.00
2019-03-19T00:19:36.853Z,91.80
2019-03-19T00:22:16.922Z,92.00
2019-03-19T00:24:57.178Z,92.20
2019-03-19T00:27:37.204Z,92.30
2019-03-19T00:30:17.458Z,92.30
2019-03-19T00:32:45.178Z,92.40
2019-03-19T00:35:32.213Z,92.40
2019-03-19T00:38:19.353Z,92.30
2019-03-19T00:47:10.143Z,91.60
2019-03-19T00:49:50.179Z,92.60
2019-03-19T00:52:30.145Z,92.80
2019-03-19T00:54:57.816Z,92.70
2019-03-19T00:57:44.907Z,92.70
2019-03-19T01:00:23.077Z,92.80
2019-03-19T01:03:10.062Z,92.50
2019-03-19T01:05:49.716Z,92.90
2019-03-19T01:08:29.739Z,93.00
2019-03-19T01:11:10.287Z,93.00
2019-03-19T01:13:50.107Z,93.20
2019-03-19T01:16:30.165Z,92.90
2019-03-19T01:19:10.487Z,92.70
2019-03-19T01:21:50.830Z,92.70
2019-03-19T01:24:30.610Z,92.80
2019-03-19T01:27:10.760Z,93.00
2019-03-19T01:29:50.961Z,93.10
2019-03-19T01:32:30.904Z,93.30
2019-03-19T01:35:11.017Z,93.40
2019-03-19T01:37:51.061Z,93.60
2019-03-19T01:40:30.939Z,94.20
2019-03-19T01:43:11.045Z,93.80
2019-03-19T01:45:51.309Z,93.70
2019-03-19T01:48:31.196Z,93.90
2019-03-19T01:51:11.026Z,93.50
2019-03-19T01:53:51.195Z,93.90
2019-03-19T01:56:31.200Z,94.10
2019-03-19T01:59:11.365Z,94.20
2019-03-19T02:01:51.610Z,94.30
2019-03-19T02:04:31.494Z,94.30
2019-03-19T02:07:11.389Z,94.50
2019-03-19T02:09:51.642Z,94.50
2019-03-19T02:12:31.646Z,94.70
2019-03-19T02:15:11.741Z,94.70
2019-03-19T02:17:51.978Z,94.80
2019-03-19T02:20:31.950Z,94.70
2019-03-19T02:23:11.887Z,94.80
2019-03-19T02:25:51.954Z,95.00
2019-03-19T02:28:31.966Z,95.10
2019-03-19T02:31:12.031Z,95.20
2019-03-19T02:33:52.158Z,95.30
2019-03-19T02:36:32.275Z,95.50
2019-03-19T02:39:12.385Z,95.40
2019-03-19T02:41:52.522Z,95.40
2019-03-19T02:44:32.450Z,95.30
2019-03-19T02:47:12.513Z,94.70
2019-03-19T02:49:52.593Z,94.60
2019-03-19T02:52:32.742Z,94.70
2019-03-19T02:55:12.922Z,94.40
2019-03-19T02:57:53.052Z,94.30
2019-03-19T03:00:33.064Z,94.50
2019-03-19T03:03:13.462Z,94.70
2019-03-19T03:05:53.322Z,94.80
2019-03-19T03:08:33.540Z,94.70
2019-03-19T03:11:13.717Z,94.70
2019-03-19T03:13:53.604Z,94.70
2019-03-19T03:16:33.646Z,94.80
2019-03-19T03:19:13.598Z,94.80
2019-03-19T03:21:53.776Z,95.10
2019-03-19T03:24:33.760Z,95.10
2019-03-19T03:27:15.457Z,95.00
2019-03-19T03:29:55.948Z,94.80
2019-03-19T03:32:35.872Z,94.70
2019-03-19T03:35:16.118Z,94.50
2019-03-19T03:37:56.262Z,94.50
2019-03-19T03:40:36.168Z,94.60
2019-03-19T03:43:16.204Z,93.90
2019-03-19T03:45:56.587Z,93.60
2019-03-19T03:48:36.858Z,93.70
2019-03-19T03:51:16.987Z,93.10
2019-03-19T03:53:57.465Z,92.90
2019-03-19T03:56:37.338Z,93.10
2019-03-19T03:59:17.391Z,93.30
2019-03-19T04:01:57.610Z,93.20
2019-03-19T04:04:37.473Z,93.20
2019-03-19T04:07:17.614Z,93.30
2019-03-19T04:09:57.866Z,93.30
2019-03-19T04:12:37.944Z,93.30
2019-03-19T04:15:18.286Z,93.20
2019-03-19T04:17:58.311Z,93.00
2019-03-19T04:20:38.730Z,93.00
2019-03-19T04:23:18.815Z,93.00
2019-03-19T04:25:59.071Z,92.90
2019-03-19T04:28:39.055Z,92.90
2019-03-19T04:31:19.157Z,92.90
2019-03-19T04:33:59.173Z,92.90
2019-03-19T04:36:39.225Z,92.90
2019-03-19T04:39:19.618Z,92.80
2019-03-19T04:41:59.902Z,92.90
2019-03-19T04:44:40.376Z,93.00
2019-03-19T04:47:20.165Z,93.00
2019-03-19T04:50:00.458Z,93.00
2019-03-19T04:52:40.318Z,93.00
2019-03-19T04:55:20.414Z,92.80
2019-03-19T04:58:00.623Z,92.50
2019-03-19T05:00:40.513Z,92.40
2019-03-19T05:03:20.655Z,92.40
2019-03-19T05:06:00.535Z,92.30
2019-03-19T05:08:40.866Z,92.20
2019-03-19T05:11:20.899Z,92.20
2019-03-19T05:13:48.706Z,92.10
2019-03-19T05:16:16.502Z,92.20
2019-03-19T05:18:58.401Z,92.20
2019-03-19T05:21:38.321Z,92.20
2019-03-19T05:24:19.390Z,92.10
2019-03-19T05:26:47.122Z,92.00
2019-03-19T05:29:34.157Z,91.90
2019-03-19T05:32:21.231Z,92.10
2019-03-19T05:38:16.355Z,92.20
2019-03-19T05:40:56.193Z,91.50
2019-03-19T05:43:36.222Z,91.20
2019-03-19T05:46:16.364Z,91.40
2019-03-19T05:48:56.312Z,91.70
2019-03-19T05:51:36.333Z,91.90
2019-03-19T05:54:03.999Z,92.20
2019-03-19T05:56:51.009Z,92.30
2019-03-19T05:59:30.897Z,92.50
2019-03-19T06:02:10.888Z,92.30
2019-03-19T06:04:51.135Z,92.20
2019-03-19T06:07:30.941Z,92.00
2019-03-19T06:10:10.883Z,92.30
2019-03-19T06:12:50.944Z,92.20
2019-03-19T06:15:33.209Z,91.70
2019-03-19T06:18:13.462Z,91.40
2019-03-19T06:20:55.284Z,91.20
2019-03-19T06:23:35.282Z,91.10
2019-03-19T06:26:15.368Z,91.50
2019-03-19T06:28:55.329Z,91.30
2019-03-19T06:31:35.478Z,91.50
2019-03-19T06:34:15.547Z,91.80
2019-03-19T06:36:55.597Z,92.30
2019-03-19T06:39:35.626Z,92.30
2019-03-19T06:42:15.909Z,92.60
2019-03-19T06:44:55.766Z,92.50
2019-03-19T06:47:35.984Z,92.50
2019-03-19T06:50:16.185Z,92.50
2019-03-19T06:52:56.257Z,92.50
2019-03-19T06:55:36.569Z,92.30
2019-03-19T06:58:16.873Z,92.10
2019-03-19T07:00:57.034Z,91.60
2019-03-19T07:03:39.135Z,91.70
2019-03-19T07:06:18.885Z,91.30
2019-03-19T07:08:58.667Z,91.10
2019-03-19T07:11:39.666Z,91.10
2019-03-19T07:14:19.912Z,90.90
2019-03-19T07:16:47.646Z,90.90
2019-03-19T07:19:27.743Z,90.70
2019-03-19T07:22:10.015Z,90.30
2019-03-19T07:24:50.667Z,90.20
2019-03-19T07:27:18.433Z,89.40
2019-03-19T07:30:06.255Z,86.90
2019-03-19T07:32:48.246Z,87.50
2019-03-19T07:35:28.640Z,86.50
2019-03-19T07:38:08.686Z,86.40
2019-03-19T07:40:48.911Z,86.30
2019-03-19T07:43:28.919Z,85.70
2019-03-19T07:49:22.497Z,83.40
2019-03-19T07:52:02.310Z,81.70
2019-03-19T07:54:42.463Z,83.30
2019-03-19T07:57:22.335Z,83.80
2019-03-19T07:59:49.974Z,83.00
2019-03-19T08:02:36.974Z,82.30
2019-03-19T08:05:15.109Z,81.60
2019-03-19T08:08:02.508Z,81.40
2019-03-19T08:10:42.892Z,80.30
2019-03-19T08:13:22.921Z,78.50
2019-03-19T08:16:02.990Z,77.50
2019-03-19T08:18:43.153Z,74.40
2019-03-19T08:21:23.244Z,71.50
2019-03-19T08:24:03.346Z,72.10
2019-03-19T08:26:43.449Z,68.30
2019-03-19T08:29:23.992Z,68.60
2019-03-19T08:32:03.793Z,69.00
2019-03-19T08:34:44.185Z,63.40
2019-03-19T08:37:26.507Z,64.60
2019-03-19T08:40:06.405Z,63.10
2019-03-19T08:42:46.897Z,60.10
2019-03-19T08:45:26.513Z,58.80
2019-03-19T08:48:06.397Z,58.70
2019-03-19T08:50:46.658Z,59.20
2019-03-19T08:53:26.745Z,57.40
2019-03-19T08:56:06.926Z,56.80
2019-03-19T08:58:47.555Z,55.30
2019-03-19T09:01:27.401Z,54.80
2019-03-19T09:04:07.152Z,55.80
2019-03-19T09:06:47.137Z,53.20
2019-03-19T09:09:27.472Z,52.40
2019-03-19T09:12:07.506Z,50.30
2019-03-19T09:14:47.845Z,49.20
2019-03-19T09:17:28.130Z,50.40
2019-03-19T09:20:08.909Z,51.10
2019-03-19T09:22:48.751Z,49.70
2019-03-19T09:25:29.153Z,46.50
2019-03-19T09:28:10.839Z,45.80
2019-03-19T09:30:51.439Z,45.30
2019-03-19T09:33:19.082Z,43.30
2019-03-19T09:36:06.126Z,40.00
2019-03-19T09:38:33.784Z,40.60
2019-03-19T09:41:20.791Z,41.40
2019-03-19T09:44:00.501Z,42.20
2019-03-19T09:46:40.588Z,41.70
2019-03-19T09:49:21.191Z,41.40
2019-03-19T09:52:00.829Z,40.20
2019-03-19T09:54:41.047Z,39.70
2019-03-19T09:57:21.142Z,40.20
2019-03-19T10:00:01.263Z,40.70
2019-03-19T10:02:42.307Z,42.80
2019-03-19T10:05:24.477Z,41.70
2019-03-19T10:08:04.274Z,41.10
2019-03-19T10:10:44.537Z,42.10
2019-03-19T10:13:24.684Z,41.40
2019-03-19T10:16:04.700Z,39.70
2019-03-19T10:18:44.844Z,38.00
2019-03-19T10:21:25.389Z,37.00
2019-03-19T10:24:05.009Z,35.80
2019-03-19T10:26:44.898Z,36.00
2019-03-19T10:29:24.958Z,37.20
2019-03-19T10:32:04.930Z,37.30
2019-03-19T10:34:45.085Z,37.60
2019-03-19T10:37:26.074Z,38.10
2019-03-19T10:40:06.391Z,36.20
2019-03-19T10:42:46.435Z,34.90
2019-03-19T10:45:26.422Z,35.80
2019-03-19T10:48:06.852Z,37.10
2019-03-19T10:50:46.534Z,37.70
2019-03-19T10:53:37.043Z,40.60
2019-03-19T10:56:17.432Z,42.00
2019-03-19T10:58:57.250Z,38.90
2019-03-19T11:01:37.479Z,41.10
2019-03-19T11:04:17.382Z,43.00
2019-03-19T11:06:57.521Z,43.00
2019-03-19T11:09:38.770Z,42.60
2019-03-19T11:12:19.059Z,41.40
2019-03-19T11:17:41.014Z,41.90
2019-03-19T11:20:21.207Z,38.40
2019-03-19T11:23:01.755Z,37.80
2019-03-19T11:25:41.498Z,36.40
2019-03-19T11:28:21.561Z,37.20
2019-03-19T11:30:49.344Z,38.40
2019-03-19T11:33:36.369Z,39.60
2019-03-19T11:36:42.782Z,40.50
2019-03-19T11:39:22.954Z,41.30
2019-03-19T11:42:02.892Z,43.00
2019-03-19T11:44:43.060Z,43.60
2019-03-19T11:47:22.846Z,44.20
2019-03-19T11:50:02.842Z,46.40
2019-03-19T11:52:43.147Z,48.30
2019-03-19T11:55:23.092Z,50.20
2019-03-19T11:58:03.593Z,48.30
2019-03-19T12:00:45.855Z,47.90
2019-03-19T12:03:25.531Z,47.60
2019-03-19T12:06:05.551Z,47.50
2019-03-19T12:08:46.243Z,48.30
2019-03-19T12:11:26.008Z,48.90
2019-03-19T12:14:06.262Z,49.30
2019-03-19T12:16:46.277Z,50.00
2019-03-19T12:19:27.744Z,50.60
2019-03-19T12:22:08.150Z,51.50
2019-03-19T12:24:48.181Z,52.10
2019-03-19T12:27:28.657Z,52.90
2019-03-19T12:30:08.454Z,53.70
2019-03-19T12:32:48.385Z,55.00
2019-03-19T12:35:30.793Z,55.70
2019-03-19T12:38:12.198Z,56.80
2019-03-19T12:40:39.828Z,57.10
2019-03-19T12:46:21.833Z,58.50
2019-03-19T12:49:02.244Z,58.80
2019-03-19T12:51:42.306Z,58.90
2019-03-19T12:54:22.910Z,59.00
2019-03-19T12:57:02.490Z,59.40
2019-03-19T12:59:42.786Z,58.90
2019-03-19T13:02:22.935Z,58.40
2019-03-19T13:05:04.538Z,59.20
2019-03-19T13:07:44.416Z,58.50
2019-03-19T13:10:24.524Z,58.20
2019-03-19T13:13:04.463Z,58.00
2019-03-19T13:15:45.437Z,58.10
2019-03-19T13:18:25.786Z,56.90
2019-03-19T13:21:05.853Z,56.70
2019-03-19T13:23:45.886Z,58.20
2019-03-19T13:26:26.109Z,55.50
2019-03-19T13:29:06.524Z,54.20
2019-03-19T13:31:46.354Z,51.10
2019-03-19T13:34:26.553Z,48.80
2019-03-19T13:37:06.325Z,44.60
2019-03-19T13:39:46.469Z,43.60
2019-03-19T13:42:26.689Z,42.00
2019-03-19T13:45:06.445Z,41.60
2019-03-19T13:47:46.393Z,41.50
2019-03-19T13:50:26.502Z,41.50
2019-03-19T13:56:05.082Z,42.40
2019-03-19T13:58:45.337Z,44.10
2019-03-19T14:01:25.410Z,45.60
2019-03-19T14:04:05.824Z,45.70
2019-03-19T14:06:45.712Z,46.60
2019-03-19T14:09:25.849Z,48.20
2019-03-19T14:12:05.685Z,49.60
2019-03-19T14:14:45.795Z,50.70
2019-03-19T14:17:25.818Z,51.60
2019-03-19T14:20:05.878Z,52.70
2019-03-19T14:22:46.065Z,54.10
2019-03-19T14:25:26.269Z,54.70
2019-03-19T14:28:06.107Z,55.30
2019-03-19T14:30:46.133Z,55.70
2019-03-19T14:33:26.015Z,55.40
2019-03-19T14:36:06.029Z,55.40
2019-03-19T14:38:47.425Z,54.80
2019-03-19T14:41:27.181Z,54.40
2019-03-19T14:44:07.146Z,54.10
2019-03-19T14:46:47.102Z,54.90
2019-03-19T14:49:27.057Z,52.90
2019-03-19T14:52:07.243Z,53.00
2019-03-19T14:54:49.240Z,51.10
2019-03-19T14:57:28.990Z,49.20
2019-03-19T14:59:56.640Z,45.80
2019-03-19T15:05:30.538Z,42.80
2019-03-19T15:08:10.237Z,40.10
2019-03-19T15:10:50.246Z,39.60
2019-03-19T15:13:30.602Z,38.70
2019-03-19T15:16:10.500Z,38.10
2019-03-19T15:18:50.706Z,36.30
2019-03-19T15:21:30.694Z,35.30
2019-03-19T15:24:10.741Z,35.30
2019-03-19T15:26:50.834Z,35.20
2019-03-19T15:29:31.073Z,34.40
2019-03-19T15:31:58.901Z,32.80
2019-03-19T15:34:45.969Z,33.20
2019-03-19T15:37:26.966Z,32.30
2019-03-19T15:40:06.648Z,32.60
2019-03-19T15:42:46.722Z,33.80
2019-03-19T15:45:26.887Z,34.50
2019-03-19T15:47:54.543Z,35.20
2019-03-19T15:50:22.399Z,36.50
2019-03-19T15:53:09.549Z,37.80
2019-03-19T15:58:51.649Z,40.20
2019-03-19T16:01:40.615Z,41.40
2019-03-19T16:04:20.941Z,42.30
2019-03-19T16:07:03.150Z,43.30
2019-03-19T16:09:44.414Z,44.50
2019-03-19T16:12:24.561Z,45.30
2019-03-19T16:15:05.167Z,46.20
2019-03-19T16:17:43.365Z,47.20
2019-03-19T16:20:30.421Z,47.70
2019-03-19T16:23:10.310Z,48.40
2019-03-19T16:25:50.734Z,48.30
2019-03-19T16:28:30.533Z,49.60
2019-03-19T16:31:15.109Z,50.30
2019-03-19T16:33:55.594Z,51.60
2019-03-19T16:36:36.611Z,51.60
2019-03-19T16:39:17.182Z,52.70
2019-03-19T16:41:57.532Z,53.50
2019-03-19T16:44:37.194Z,54.40
2019-03-19T16:47:17.494Z,54.40
2019-03-19T16:49:57.714Z,54.90
2019-03-19T16:52:38.981Z,55.30
2019-03-19T16:55:18.702Z,55.50
2019-03-19T17:01:00.241Z,54.90
2019-03-19T17:03:40.327Z,56.00
2019-03-19T17:06:20.458Z,55.90
2019-03-19T17:09:00.620Z,55.90
2019-03-19T17:11:40.487Z,55.80
2019-03-19T17:14:20.991Z,55.80
2019-03-19T17:17:02.569Z,56.80
2019-03-19T17:19:42.538Z,57.70
2019-03-19T17:22:22.739Z,58.90
2019-03-19T17:25:02.818Z,59.70
2019-03-19T17:27:42.937Z,60.90
2019-03-19T17:30:22.998Z,62.10
2019-03-19T17:33:03.085Z,61.60
2019-03-19T17:35:43.609Z,61.90
2019-03-19T17:38:23.678Z,62.40
2019-03-19T17:41:05.070Z,63.30
2019-03-19T17:43:45.015Z,63.70
2019-03-19T17:46:25.065Z,63.80
2019-03-19T17:49:04.926Z,64.20
2019-03-19T17:51:45.278Z,64.50
2019-03-19T17:54:25.206Z,65.00
2019-03-19T17:56:53.306Z,66.00
2019-03-19T17:59:40.476Z,66.30
2019-03-19T18:02:10.031Z,66.40
2019-03-19T18:07:44.944Z,67.00
2019-03-19T18:10:25.110Z,67.10
2019-03-19T18:12:53.116Z,68.00
2019-03-19T18:15:40.203Z,67.90
2019-03-19T18:18:40.120Z,68.40
2019-03-19T18:21:09.423Z,67.00
2019-03-19T18:23:49.490Z,66.70
2019-03-19T18:26:29.527Z,67.10
2019-03-19T18:29:10.598Z,67.50
2019-03-19T18:31:51.913Z,68.60
2019-03-19T18:34:31.804Z,68.60
2019-03-19T18:36:59.853Z,69.00
2019-03-19T18:39:46.934Z,69.00
2019-03-19T18:42:35.113Z,69.10
2019-03-19T18:45:15.330Z,68.80
2019-03-19T18:47:56.400Z,68.40
2019-03-19T18:50:36.519Z,68.50
2019-03-19T18:53:16.373Z,69.00
2019-03-19T18:55:56.555Z,69.50
2019-03-19T18:58:36.497Z,70.20
2019-03-19T19:01:16.606Z,70.20
2019-03-19T19:03:57.804Z,70.20
2019-03-19T19:09:50.807Z,71.50
2019-03-19T19:12:31.095Z,71.30
2019-03-19T19:15:10.932Z,71.30
2019-03-19T19:17:51.136Z,71.50
2019-03-19T19:20:31.281Z,71.80
2019-03-19T19:23:11.391Z,72.20
2019-03-19T19:25:39.142Z,72.50
2019-03-19T19:28:27.012Z,73.10
2019-03-19T19:31:14.288Z,74.20
2019-03-19T19:33:54.857Z,73.90
2019-03-19T19:36:34.777Z,73.50
2019-03-19T19:39:14.864Z,73.90
2019-03-19T19:41:55.174Z,73.70
2019-03-19T19:44:35.420Z,74.10
2019-03-19T19:47:15.372Z,74.70
2019-03-19T19:49:43.123Z,75.00
2019-03-19T19:52:30.255Z,75.70
2019-03-19T19:55:09.895Z,75.90
2019-03-19T19:57:50.039Z,76.60
2019-03-19T20:00:30.174Z,77.00
2019-03-19T20:03:11.491Z,75.50
2019-03-19T20:05:50.036Z,75.60
2019-03-19T20:08:29.810Z,75.20
2019-03-19T20:11:11.051Z,75.50
2019-03-19T20:13:51.130Z,75.60
2019-03-19T20:16:31.268Z,75.80
2019-03-19T20:19:11.294Z,75.60
2019-03-19T20:21:51.283Z,75.80
2019-03-19T20:24:21.897Z,75.40
2019-03-19T20:27:09.011Z,75.60
2019-03-19T20:29:56.087Z,75.50
2019-03-19T20:32:24.127Z,75.20
2019-03-19T20:35:11.437Z,74.40
2019-03-19T20:37:51.325Z,74.20
2019-03-19T20:40:19.117Z,74.70
2019-03-19T20:45:59.319Z,74.70
2019-03-19T20:48:39.669Z,73.90
2019-03-19T20:51:19.930Z,73.20
2019-03-19T20:53:59.991Z,72.60
2019-03-19T20:56:27.581Z,72.80
2019-03-19T20:59:16.011Z,73.20
2019-03-19T21:01:56.552Z,73.30
2019-03-19T21:04:36.394Z,73.10
2019-03-19T21:07:16.543Z,73.40
2019-03-19T21:09:56.764Z,73.50
2019-03-19T21:12:38.485Z,73.90
2019-03-19T21:15:18.483Z,74.00
2019-03-19T21:17:58.780Z,74.30
2019-03-19T21:20:39.065Z,74.20
2019-03-19T21:23:19.278Z,74.10
2019-03-19T21:25:59.413Z,75.10
2019-03-19T21:28:39.585Z,74.60
2019-03-19T21:31:19.846Z,74.60
2019-03-19T21:34:00.717Z,74.80
2019-03-19T21:36:41.029Z,75.40
2019-03-19T21:39:21.351Z,75.90
2019-03-19T21:42:01.402Z,76.00
2019-03-19T21:44:41.556Z,75.60
2019-03-19T21:47:21.565Z,75.60
2019-03-19T21:50:01.980Z,75.70
2019-03-19T21:52:42.144Z,76.00
2019-03-19T21:55:21.821Z,76.30
2019-03-19T21:58:02.026Z,76.50
2019-03-19T22:00:42.078Z,77.00
2019-03-19T22:03:22.272Z,76.90
2019-03-19T22:06:02.478Z,77.50
2019-03-19T22:08:42.828Z,77.50
2019-03-19T22:11:23.362Z,77.80
2019-03-19T22:14:03.229Z,77.60
2019-03-19T22:16:43.407Z,77.90
2019-03-19T22:22:36.045Z,78.30
2019-03-19T22:25:17.757Z,78.50
2019-03-19T22:27:58.608Z,79.30
2019-03-19T22:30:38.380Z,78.30
2019-03-19T22:33:18.382Z,78.20
2019-03-19T22:35:58.469Z,78.00
2019-03-19T22:38:38.963Z,78.30
2019-03-19T22:41:18.575Z,78.10
2019-03-19T22:43:58.442Z,78.10
2019-03-19T22:46:38.370Z,77.90
2019-03-19T22:49:18.717Z,77.90
2019-03-19T22:51:58.972Z,78.00
2019-03-19T22:54:38.861Z,77.50
2019-03-19T22:57:18.937Z,77.90
2019-03-19T22:59:59.138Z,78.40
2019-03-19T23:02:39.898Z,78.10
2019-03-19T23:05:19.662Z,78.10
2019-03-19T23:08:00.050Z,78.40
2019-03-19T23:10:27.873Z,78.00
2019-03-19T23:12:55.545Z,78.70
2019-03-19T23:15:42.537Z,78.80
2019-03-19T23:18:20.861Z,79.00
2019-03-19T23:21:07.972Z,79.10
2019-03-19T23:23:48.206Z,78.90
2019-03-19T23:26:28.313Z,79.30
2019-03-19T23:28:56.014Z,79.30
2019-03-19T23:31:43.053Z,79.50
2019-03-19T23:34:38.113Z,79.60
2019-03-19T23:37:11.762Z,79.80
2019-03-19T23:39:51.973Z,79.90
2019-03-19T23:42:32.126Z,80.00
2019-03-19T23:45:12.493Z,80.00
2019-03-19T23:50:50.838Z,80.70
2019-03-19T23:53:31.265Z,79.80
2019-03-19T23:56:11.737Z,80.00
2019-03-19T23:58:39.321Z,80.60
